createdAt,value
2022-08-10T00:01:40.071Z,4.45
2022-08-10T00:04:08.552Z,5.05
2022-08-10T00:06:37.339Z,5.60
2022-08-10T00:09:06.897Z,4.47
2022-08-10T00:11:35.002Z,4.47
2022-08-10T00:14:03.277Z,4.90
2022-08-10T00:16:31.416Z,4.88
2022-08-10T00:18:59.769Z,5.00
2022-08-10T00:21:27.898Z,5.20
2022-08-10T00:23:56.360Z,4.72
2022-08-10T00:26:25.861Z,5.22
2022-08-10T00:28:54.178Z,4.78
2022-08-10T00:31:22.286Z,5.07
2022-08-10T00:33:50.624Z,5.10
2022-08-10T00:36:18.712Z,5.07
2022-08-10T00:38:46.868Z,5.05
2022-08-10T00:41:14.848Z,5.43
2022-08-10T00:43:44.272Z,5.28
2022-08-10T00:46:12.460Z,5.13
2022-08-10T00:48:40.472Z,5.65
2022-08-10T00:51:08.742Z,5.82
2022-08-10T00:53:36.824Z,5.30
2022-08-10T00:57:12.302Z,5.15
2022-08-10T00:58:54.689Z,5.18
2022-08-10T01:02:09.178Z,4.82
2022-08-10T01:04:55.513Z,4.57
2022-08-10T01:07:15.716Z,5.05
2022-08-10T01:09:56.980Z,5.00
2022-08-10T01:12:41.786Z,5.10
2022-08-10T01:15:20.112Z,5.25
2022-08-10T01:17:54.936Z,5.43
2022-08-10T01:20:30.896Z,5.35
2022-08-10T01:23:37.137Z,5.32
2022-08-10T01:26:43.376Z,5.10
2022-08-10T01:29:40.157Z,6.05
2022-08-10T01:32:10.568Z,5.25
2022-08-10T01:34:45.459Z,4.93
2022-08-10T01:37:15.941Z,5.13
2022-08-10T01:39:48.165Z,5.22
2022-08-10T01:42:19.825Z,5.13
2022-08-10T01:44:53.433Z,4.93
2022-08-10T01:47:48.996Z,5.10
2022-08-10T01:50:23.769Z,5.28
2022-08-10T01:52:54.351Z,5.43
2022-08-10T01:55:24.469Z,5.70
2022-08-10T01:57:54.488Z,5.53
2022-08-10T02:00:26.062Z,4.90
2022-08-10T02:02:55.371Z,5.15
2022-08-10T02:05:26.963Z,4.55
2022-08-10T02:07:57.564Z,5.45
2022-08-10T02:10:27.300Z,5.22
2022-08-10T02:12:57.469Z,5.20
2022-08-10T02:15:31.640Z,5.53
2022-08-10T02:18:02.937Z,4.97
2022-08-10T02:20:36.300Z,4.75
2022-08-10T02:23:08.630Z,5.82
2022-08-10T02:25:40.581Z,5.43
2022-08-10T02:28:27.104Z,4.93
2022-08-10T02:31:02.608Z,4.72
2022-08-10T02:33:31.685Z,5.53
2022-08-10T02:36:07.738Z,5.07
2022-08-10T02:38:59.590Z,5.35
2022-08-10T02:45:02.894Z,5.45
2022-08-10T02:45:22.578Z,5.53
2022-08-10T02:47:26.519Z,5.53
2022-08-10T02:50:04.196Z,5.88
2022-08-10T02:52:39.796Z,5.45
2022-08-10T02:55:17.989Z,5.32
2022-08-10T02:58:12.561Z,5.38
2022-08-10T03:00:45.464Z,5.13
2022-08-10T03:03:21.281Z,4.97
2022-08-10T03:05:52.115Z,5.53
2022-08-10T03:08:22.451Z,4.85
2022-08-10T03:10:52.205Z,5.28
2022-08-10T03:13:23.200Z,6.30
2022-08-10T03:15:52.729Z,4.95
2022-08-10T03:18:24.765Z,5.60
2022-08-10T03:20:54.427Z,5.07
2022-08-10T03:23:25.131Z,5.18
2022-08-10T03:25:57.748Z,5.60
2022-08-10T03:28:29.108Z,5.43
2022-08-10T03:30:58.607Z,5.63
2022-08-10T03:33:30.549Z,5.47
2022-08-10T03:36:43.936Z,5.10
2022-08-10T03:38:51.675Z,5.38
2022-08-10T03:41:24.143Z,5.53
2022-08-10T03:43:54.487Z,5.60
2022-08-10T03:46:25.998Z,5.30
2022-08-10T03:48:59.228Z,5.55
2022-08-10T03:51:29.812Z,5.00
2022-08-10T03:54:06.087Z,5.20
2022-08-10T03:56:41.095Z,5.40
2022-08-10T03:59:12.418Z,5.15
2022-08-10T04:02:52.006Z,5.65
2022-08-10T04:04:31.512Z,5.82
2022-08-10T04:07:01.376Z,5.45
2022-08-10T04:09:53.921Z,5.07
2022-08-10T04:12:19.376Z,5.15
2022-08-10T04:14:51.159Z,5.28
2022-08-10T04:18:04.650Z,5.32
2022-08-10T04:20:18.754Z,5.50
2022-08-10T04:22:51.204Z,5.32
2022-08-10T04:25:20.877Z,5.32
2022-08-10T04:27:49.819Z,5.65
2022-08-10T04:30:18.294Z,5.75
2022-08-10T04:32:50.127Z,5.50
2022-08-10T04:35:22.188Z,5.80
2022-08-10T04:37:52.169Z,5.35
2022-08-10T04:40:28.608Z,5.22
2022-08-10T04:43:04.423Z,5.32
2022-08-10T04:45:50.107Z,6.10
2022-08-10T04:48:43.065Z,5.78
2022-08-10T04:51:17.679Z,4.90
2022-08-10T04:54:04.706Z,5.68
2022-08-10T04:56:39.830Z,6.30
2022-08-10T04:59:09.357Z,5.65
2022-08-10T05:02:30.608Z,5.60
2022-08-10T05:04:37.152Z,5.93
2022-08-10T05:07:09.764Z,5.72
2022-08-10T05:10:01.016Z,5.28
2022-08-10T05:12:27.741Z,5.25
2022-08-10T05:14:55.976Z,6.20
2022-08-10T05:17:24.490Z,5.70
2022-08-10T05:20:01.578Z,5.50
2022-08-10T05:22:32.164Z,5.43
2022-08-10T05:25:00.173Z,5.45
2022-08-10T05:27:28.133Z,5.20
2022-08-10T05:30:01.653Z,4.80
2022-08-10T05:32:31.303Z,6.07
2022-08-10T05:34:59.585Z,5.55
2022-08-10T05:38:09.004Z,6.13
2022-08-10T05:40:19.547Z,5.10
2022-08-10T05:42:47.521Z,5.85
2022-08-10T05:45:21.642Z,5.53
2022-08-10T05:48:41.678Z,4.95
2022-08-10T05:50:46.871Z,5.18
2022-08-10T05:53:59.189Z,5.15
2022-08-10T05:56:05.299Z,5.25
2022-08-10T05:58:33.850Z,5.30
2022-08-10T06:01:05.063Z,5.20
2022-08-10T06:03:37.375Z,5.88
2022-08-10T06:06:09.765Z,6.10
2022-08-10T06:08:42.390Z,6.30
2022-08-10T06:12:24.633Z,5.25
2022-08-10T06:14:20.542Z,4.60
2022-08-10T06:16:57.461Z,4.75
2022-08-10T06:19:26.672Z,5.30
2022-08-10T06:22:00.565Z,6.88
2022-08-10T06:24:31.164Z,4.13
2022-08-10T06:27:00.980Z,5.80
2022-08-10T06:29:33.224Z,7.60
2022-08-10T06:32:02.552Z,5.18
2022-08-10T06:34:39.774Z,3.90
2022-08-10T06:37:09.157Z,4.82
2022-08-10T06:39:37.693Z,7.38
2022-08-10T06:42:18.298Z,6.93
2022-08-10T06:45:00.332Z,4.20
2022-08-10T06:47:33.943Z,7.32
2022-08-10T06:50:09.552Z,4.35
2022-08-10T06:52:39.352Z,3.78
2022-08-10T06:55:10.087Z,5.93
2022-08-10T06:57:42.527Z,4.47
2022-08-10T07:00:19.690Z,4.40
2022-08-10T07:02:52.818Z,5.05
2022-08-10T07:05:23.417Z,4.95
2022-08-10T07:07:53.716Z,4.57
2022-08-10T07:10:25.050Z,7.25
2022-08-10T07:13:12.605Z,4.15
2022-08-10T07:15:59.130Z,5.07
2022-08-10T07:18:29.868Z,4.45
2022-08-10T07:21:01.928Z,3.50
2022-08-10T07:23:57.443Z,4.28
2022-08-10T07:26:20.366Z,7.45
2022-08-10T07:28:51.304Z,5.00
2022-08-10T07:31:54.421Z,3.55
2022-08-10T07:34:10.714Z,5.15
2022-08-10T07:36:42.015Z,7.07
2022-08-10T07:39:13.796Z,4.53
2022-08-10T07:41:45.519Z,5.78
2022-08-10T07:44:16.205Z,5.22
2022-08-10T07:46:50.967Z,4.07
2022-08-10T07:49:22.304Z,4.27
2022-08-10T07:51:54.347Z,3.42
2022-08-10T07:54:25.495Z,4.80
2022-08-10T07:56:56.778Z,3.50
2022-08-10T07:59:32.448Z,3.60
2022-08-10T08:02:01.931Z,5.32
2022-08-10T08:04:30.765Z,6.53
2022-08-10T08:07:00.538Z,4.75
2022-08-10T08:09:30.287Z,17.58
2022-08-10T08:12:00.513Z,13.60
2022-08-10T08:14:34.009Z,7.32
2022-08-10T08:17:02.023Z,4.18
2022-08-10T08:19:37.765Z,5.97
2022-08-10T08:24:10.492Z,10.68
2022-08-10T08:25:02.389Z,5.10
2022-08-10T08:27:31.329Z,5.88
2022-08-10T08:30:01.557Z,8.48
2022-08-10T08:32:32.677Z,6.75
2022-08-10T08:35:04.635Z,3.58
2022-08-10T08:38:31.248Z,4.80
2022-08-10T08:40:25.658Z,4.07
2022-08-10T08:43:21.659Z,3.92
2022-08-10T08:46:28.491Z,3.92
2022-08-10T08:50:04.945Z,4.93
2022-08-10T08:52:29.918Z,3.80
2022-08-10T08:55:05.147Z,6.07
2022-08-10T08:58:04.465Z,3.83
2022-08-10T09:00:41.728Z,3.40
2022-08-10T09:03:28.661Z,5.78
2022-08-10T09:06:17.098Z,4.97
2022-08-10T09:09:22.782Z,3.80
2022-08-10T09:12:04.125Z,4.78
2022-08-10T09:14:39.494Z,3.85
2022-08-10T09:17:21.366Z,3.20
2022-08-10T09:20:00.002Z,7.63
2022-08-10T09:22:35.186Z,3.72
2022-08-10T09:25:14.001Z,3.83
2022-08-10T09:27:49.304Z,3.53
2022-08-10T09:30:29.144Z,3.80
2022-08-10T09:36:21.930Z,3.38
2022-08-10T09:36:26.378Z,3.55
2022-08-10T09:39:06.579Z,3.40
2022-08-10T09:41:43.112Z,6.40
2022-08-10T09:44:22.639Z,3.70
2022-08-10T09:47:06.906Z,4.20
2022-08-10T09:49:54.949Z,3.67
2022-08-10T09:52:45.065Z,3.70
2022-08-10T09:55:21.731Z,4.70
2022-08-10T09:58:02.801Z,3.60
2022-08-10T10:00:37.078Z,3.95
2022-08-10T10:03:17.733Z,3.75
2022-08-10T10:06:02.731Z,3.75
2022-08-10T10:08:43.140Z,3.45
2022-08-10T10:11:19.232Z,3.50
2022-08-10T10:14:03.467Z,2.95
2022-08-10T10:16:53.646Z,4.07
2022-08-10T10:19:44.217Z,3.05
2022-08-10T10:22:26.523Z,3.20
2022-08-10T10:25:19.727Z,3.40
2022-08-10T10:27:54.282Z,3.30
2022-08-10T10:30:26.069Z,3.05
2022-08-10T10:33:01.384Z,3.00
2022-08-10T10:35:36.568Z,3.22
2022-08-10T10:38:07.812Z,3.33
2022-08-10T10:40:50.630Z,3.35
2022-08-10T10:43:35.749Z,3.20
2022-08-10T10:46:12.825Z,3.17
2022-08-10T10:48:49.096Z,3.65
2022-08-10T10:51:22.919Z,4.45
2022-08-10T10:54:08.522Z,2.95
2022-08-10T10:56:55.801Z,4.43
2022-08-10T10:59:55.100Z,3.50
2022-08-10T11:02:55.254Z,2.60
2022-08-10T11:05:34.245Z,2.70
2022-08-10T11:08:08.886Z,2.80
2022-08-10T11:10:52.797Z,3.10
2022-08-10T11:14:24.851Z,2.83
2022-08-10T11:16:30.927Z,2.72
2022-08-10T11:19:08.876Z,3.13
2022-08-10T11:21:46.817Z,2.70
2022-08-10T11:24:47.942Z,2.72
2022-08-10T11:27:22.229Z,2.78
2022-08-10T11:30:00.482Z,3.08
2022-08-10T11:32:36.564Z,3.15
2022-08-10T11:35:12.605Z,3.92
2022-08-10T11:38:28.512Z,3.58
2022-08-10T11:40:43.389Z,4.53
2022-08-10T11:43:19.215Z,2.88
2022-08-10T11:45:55.967Z,2.85
2022-08-10T11:48:53.922Z,3.13
2022-08-10T11:51:27.832Z,2.60
2022-08-10T11:54:02.088Z,2.78
2022-08-10T11:56:38.134Z,2.65
2022-08-10T11:59:24.124Z,2.80
2022-08-10T12:01:56.394Z,2.70
2022-08-10T12:04:25.737Z,3.00
2022-08-10T12:06:55.962Z,3.33
2022-08-10T12:10:08.688Z,3.33
2022-08-10T12:12:14.661Z,2.78
2022-08-10T12:14:49.556Z,2.80
2022-08-10T12:17:25.107Z,3.08
2022-08-10T12:20:03.370Z,2.47
2022-08-10T12:22:37.399Z,3.03
2022-08-10T12:25:10.476Z,3.78
2022-08-10T12:27:43.578Z,2.42
2022-08-10T12:30:15.005Z,2.70
2022-08-10T12:32:52.422Z,2.70
2022-08-10T12:35:26.767Z,2.80
2022-08-10T12:38:05.934Z,2.65
2022-08-10T12:40:41.210Z,2.80
2022-08-10T12:44:05.241Z,2.70
2022-08-10T12:46:10.697Z,2.95
2022-08-10T12:48:45.100Z,2.70
2022-08-10T12:51:19.781Z,2.60
2022-08-10T12:53:53.065Z,2.83
2022-08-10T12:56:24.764Z,2.63
2022-08-10T12:58:59.274Z,2.72
2022-08-10T13:02:10.118Z,2.85
2022-08-10T13:04:34.539Z,2.28
2022-08-10T13:07:04.159Z,2.33
2022-08-10T13:09:33.803Z,2.53
2022-08-10T13:12:35.267Z,2.60
2022-08-10T13:15:45.803Z,3.13
2022-08-10T13:18:18.803Z,3.15
2022-08-10T13:20:53.696Z,2.55
2022-08-10T13:23:26.825Z,2.72
2022-08-10T13:26:00.530Z,3.78
2022-08-10T13:28:39.855Z,2.78
2022-08-10T13:31:17.497Z,2.45
2022-08-10T13:34:40.456Z,2.33
2022-08-10T13:36:43.000Z,3.40
2022-08-10T13:39:13.443Z,2.72
2022-08-10T13:41:43.555Z,2.58
2022-08-10T13:44:16.567Z,2.50
2022-08-10T13:46:51.174Z,2.58
2022-08-10T13:49:20.939Z,2.63
2022-08-10T13:51:54.171Z,3.05
2022-08-10T13:54:28.465Z,2.53
2022-08-10T13:56:57.855Z,2.92
2022-08-10T14:00:35.419Z,2.78
2022-08-10T14:02:25.114Z,3.00
2022-08-10T14:04:55.478Z,2.42
2022-08-10T14:07:27.210Z,2.33
2022-08-10T14:10:04.843Z,2.40
2022-08-10T14:12:33.839Z,2.60
2022-08-10T14:15:03.944Z,2.85
2022-08-10T14:17:33.555Z,2.75
2022-08-10T14:20:03.243Z,2.60
2022-08-10T14:22:40.410Z,2.97
2022-08-10T14:25:16.973Z,2.65
2022-08-10T14:28:03.529Z,4.07
2022-08-10T14:30:34.512Z,2.58
2022-08-10T14:33:04.806Z,2.42
2022-08-10T14:36:18.461Z,2.60
2022-08-10T14:38:31.815Z,3.08
2022-08-10T14:41:03.963Z,2.95
2022-08-10T14:43:39.429Z,2.53
2022-08-10T14:46:11.128Z,3.67
2022-08-10T14:48:42.132Z,2.50
2022-08-10T14:51:12.805Z,2.55
2022-08-10T14:53:46.599Z,2.38
2022-08-10T14:56:19.446Z,2.30
2022-08-10T14:59:05.520Z,2.63
2022-08-10T15:01:59.904Z,2.40
2022-08-10T15:04:29.334Z,2.75
2022-08-10T15:07:01.288Z,2.45
2022-08-10T15:10:00.190Z,3.10
2022-08-10T15:12:33.039Z,2.35
2022-08-10T15:15:02.516Z,4.60
2022-08-10T15:17:35.038Z,3.20
2022-08-10T15:20:13.836Z,4.70
2022-08-10T15:22:49.914Z,2.72
2022-08-10T15:25:24.855Z,2.55
2022-08-10T15:27:57.252Z,2.75
2022-08-10T15:30:31.387Z,4.40
2022-08-10T15:33:21.252Z,2.88
2022-08-10T15:36:27.925Z,2.38
2022-08-10T15:39:00.573Z,3.85
2022-08-10T15:41:59.612Z,2.50
2022-08-10T15:44:40.506Z,2.63
2022-08-10T15:47:15.639Z,2.50
2022-08-10T15:49:50.320Z,2.70
2022-08-10T15:52:39.603Z,2.70
2022-08-10T15:55:41.106Z,2.78
2022-08-10T15:58:10.456Z,4.88
2022-08-10T16:00:45.267Z,2.33
2022-08-10T16:03:18.294Z,2.72
2022-08-10T16:06:01.532Z,2.72
2022-08-10T16:08:56.552Z,2.45
2022-08-10T16:11:38.258Z,2.30
2022-08-10T16:14:17.331Z,2.88
2022-08-10T16:16:51.502Z,2.20
2022-08-10T16:19:24.999Z,2.65
2022-08-10T16:21:59.999Z,2.67
2022-08-10T16:24:32.694Z,2.40
2022-08-10T16:27:04.858Z,2.25
2022-08-10T16:29:55.884Z,2.50
2022-08-10T16:32:26.633Z,2.60
2022-08-10T16:34:56.746Z,2.85
2022-08-10T16:37:57.733Z,2.60
2022-08-10T16:40:22.369Z,2.65
2022-08-10T16:42:51.095Z,2.95
2022-08-10T16:45:30.351Z,2.80
2022-08-10T16:47:59.299Z,2.92
2022-08-10T16:50:30.086Z,2.33
2022-08-10T16:53:02.093Z,3.88
2022-08-10T16:55:48.175Z,2.30
2022-08-10T16:58:21.399Z,2.67
2022-08-10T17:00:52.268Z,4.15
2022-08-10T17:04:06.991Z,4.22
2022-08-10T17:06:21.997Z,2.90
2022-08-10T17:08:54.032Z,2.30
2022-08-10T17:11:24.243Z,2.53
2022-08-10T17:13:57.836Z,2.72
2022-08-10T17:16:34.259Z,3.28
2022-08-10T17:19:04.129Z,2.22
2022-08-10T17:21:51.064Z,2.67
2022-08-10T17:24:22.582Z,4.20
2022-08-10T17:26:52.881Z,2.85
2022-08-10T17:29:57.490Z,2.65
2022-08-10T17:32:20.753Z,3.38
2022-08-10T17:34:53.572Z,3.33
2022-08-10T17:37:25.437Z,2.60
2022-08-10T17:39:59.295Z,2.42
2022-08-10T17:42:28.570Z,2.70
2022-08-10T17:44:58.021Z,2.50
2022-08-10T17:47:28.426Z,3.60
2022-08-10T17:49:58.008Z,2.80
2022-08-10T17:52:30.614Z,2.55
2022-08-10T17:55:02.144Z,2.70
2022-08-10T17:57:36.261Z,2.80
2022-08-10T18:00:08.073Z,3.38
2022-08-10T18:02:40.315Z,2.85
2022-08-10T18:05:10.951Z,2.40
2022-08-10T18:07:44.879Z,2.90
2022-08-10T18:10:17.639Z,3.00
2022-08-10T18:12:47.446Z,3.08
2022-08-10T18:15:19.253Z,3.00
2022-08-10T18:17:55.496Z,3.08
2022-08-10T18:20:28.041Z,3.15
2022-08-10T18:22:58.348Z,3.40
2022-08-10T18:25:32.110Z,3.30
2022-08-10T18:28:05.244Z,3.17
2022-08-10T18:30:37.266Z,2.90
2022-08-10T18:33:11.977Z,3.22
2022-08-10T18:35:40.776Z,2.90
2022-08-10T18:38:12.865Z,3.00
2022-08-10T18:40:45.064Z,2.80
2022-08-10T18:44:05.494Z,2.97
2022-08-10T18:46:11.591Z,2.90
2022-08-10T18:48:48.004Z,4.18
2022-08-10T18:51:22.734Z,3.22
2022-08-10T18:53:54.804Z,3.92
2022-08-10T18:56:37.289Z,2.97
2022-08-10T18:59:23.333Z,3.15
2022-08-10T19:02:08.939Z,3.20
2022-08-10T19:04:53.649Z,2.50
2022-08-10T19:07:41.458Z,2.65
2022-08-10T19:10:15.709Z,2.97
2022-08-10T19:12:52.668Z,2.75
2022-08-10T19:15:29.144Z,3.08
2022-08-10T19:18:08.235Z,3.22
2022-08-10T19:20:45.144Z,4.00
2022-08-10T19:23:37.801Z,3.28
2022-08-10T19:26:42.617Z,2.90
2022-08-10T19:30:04.999Z,2.72
2022-08-10T19:32:21.673Z,2.67
2022-08-10T19:35:02.143Z,2.60
2022-08-10T19:37:39.911Z,2.42
2022-08-10T19:40:21.649Z,2.95
2022-08-10T19:43:20.620Z,3.20
2022-08-10T19:46:03.326Z,2.63
2022-08-10T19:48:42.389Z,2.50
2022-08-10T19:51:17.700Z,4.07
2022-08-10T19:53:57.927Z,2.58
2022-08-10T19:56:34.838Z,2.67
2022-08-10T19:59:08.999Z,3.30
2022-08-10T20:01:55.792Z,2.78
2022-08-10T20:04:32.231Z,3.22
2022-08-10T20:07:11.249Z,3.25
2022-08-10T20:09:47.350Z,3.40
2022-08-10T20:12:24.260Z,4.13
2022-08-10T20:15:03.048Z,3.28
2022-08-10T20:17:51.011Z,3.40
2022-08-10T20:20:31.382Z,3.50
2022-08-10T20:23:13.830Z,5.60
2022-08-10T20:25:47.554Z,3.78
2022-08-10T20:28:21.584Z,3.50
2022-08-10T20:30:53.469Z,3.33
2022-08-10T20:33:29.346Z,3.33
2022-08-10T20:36:04.453Z,3.38
2022-08-10T20:38:39.135Z,3.55
2022-08-10T20:41:24.098Z,3.10
2022-08-10T20:44:03.469Z,3.85
2022-08-10T20:46:36.888Z,3.05
2022-08-10T20:49:21.170Z,3.28
2022-08-10T20:51:58.042Z,3.08
2022-08-10T20:54:33.098Z,3.47
2022-08-10T20:57:54.075Z,3.63
2022-08-10T21:00:11.018Z,3.33
2022-08-10T21:02:55.964Z,4.30
2022-08-10T21:05:33.041Z,3.33
2022-08-10T21:08:12.001Z,3.60
2022-08-10T21:10:57.622Z,3.40
2022-08-10T21:13:37.611Z,3.30
2022-08-10T21:16:21.695Z,3.28
2022-08-10T21:19:05.560Z,3.50
2022-08-10T21:21:56.847Z,3.88
2022-08-10T21:24:26.920Z,3.58
2022-08-10T21:27:08.219Z,3.40
2022-08-10T21:29:56.074Z,3.42
2022-08-10T21:32:39.108Z,3.40
2022-08-10T21:35:20.094Z,3.17
2022-08-10T21:37:58.547Z,2.90
2022-08-10T21:41:18.348Z,3.05
2022-08-10T21:44:05.577Z,3.10
2022-08-10T21:47:02.542Z,3.42
2022-08-10T21:50:03.868Z,3.17
2022-08-10T21:53:04.292Z,3.50
2022-08-10T21:56:01.987Z,2.88
2022-08-10T21:58:54.785Z,3.28
2022-08-10T22:02:03.038Z,3.65
2022-08-10T22:04:49.907Z,3.38
2022-08-10T22:07:39.050Z,3.08
2022-08-10T22:10:27.369Z,3.40
2022-08-10T22:13:17.733Z,5.13
2022-08-10T22:16:12.313Z,2.90
2022-08-10T22:19:03.569Z,3.28
2022-08-10T22:22:19.882Z,3.42
2022-08-10T22:25:29.541Z,3.17
2022-08-10T22:28:18.183Z,3.35
2022-08-10T22:31:30.734Z,3.50
2022-08-10T22:34:33.220Z,3.05
2022-08-10T22:37:36.812Z,3.33
2022-08-10T22:40:29.111Z,3.17
2022-08-10T22:43:35.364Z,3.60
2022-08-10T22:46:25.497Z,3.83
2022-08-10T22:49:01.527Z,3.50
2022-08-10T22:51:52.118Z,3.38
2022-08-10T22:54:44.974Z,3.45
2022-08-10T22:57:32.059Z,3.70
2022-08-10T23:00:00.388Z,3.60
2022-08-10T23:02:33.249Z,3.15
2022-08-10T23:05:10.460Z,5.10
2022-08-10T23:07:48.293Z,3.55
2022-08-10T23:10:19.391Z,3.75
2022-08-10T23:12:51.110Z,4.03
2022-08-10T23:15:43.830Z,4.22
2022-08-10T23:18:35.510Z,3.40
2022-08-10T23:21:04.653Z,4.03
2022-08-10T23:23:40.768Z,3.13
2022-08-10T23:26:11.554Z,3.70
2022-08-10T23:29:04.294Z,3.35
2022-08-10T23:31:59.133Z,3.60
2022-08-10T23:34:23.806Z,3.70
2022-08-10T23:36:53.757Z,3.22
2022-08-10T23:39:31.069Z,3.50
2022-08-10T23:42:07.476Z,3.65
2022-08-10T23:44:44.018Z,4.03
2022-08-10T23:47:14.793Z,3.83
2022-08-10T23:49:45.073Z,3.83
2022-08-10T23:52:16.645Z,3.63
2022-08-10T23:54:49.812Z,3.67
2022-08-10T23:57:21.096Z,3.97
2022-08-10T23:59:56.643Z,4.00
